Omagh, United Kingdom
Current Conditions -  °F | °C
As of 2:20 PM on Thursday 23 Oct 2014 (Local Time) from EGAE Reporting Station
Light Rain Light Rain  
Wind Chill: 59°   Ceiling: 1800
Heat Index: 59°   Visibility: 6mi
Dew Point: 55°   Wind: 18mph
Humidity: 88%   Direction: 210°SSW
Pressure: 29.71"   Gusts: NA
Location:  54.6°N, 7.3°W
Report Text: EGAE 231320Z 21016KT 9999 -RA FEW008 SCT014 BKN018 15/13 Q1006
Loading
Personal Weather Stations






























Interactive Weather Map
Tropical Storm Tracking
New forecast layout! Learn more

10-Day Weather Forecast

Advertisements
Track Severe Weather on mobile